sensor_id;sensor_type;location;lat;lon;timestamp;pressure;altitude;pressure_sealevel;temperature;humidity
44697;BME280;57264;47.480;19.354;2023-03-14T00:00:46;98445.44;;;6.41;51.48
44697;BME280;57264;47.480;19.354;2023-03-14T00:03:12;98438.00;;;6.38;51.96
44697;BME280;57264;47.480;19.354;2023-03-14T00:05:37;98442.78;;;6.34;52.22
44697;BME280;57264;47.480;19.354;2023-03-14T00:08:03;98443.00;;;6.33;51.76
44697;BME280;57264;47.480;19.354;2023-03-14T00:10:28;98428.97;;;6.34;51.93
44697;BME280;57264;47.480;19.354;2023-03-14T00:12:54;98437.78;;;6.33;52.11
44697;BME280;57264;47.480;19.354;2023-03-14T00:15:19;98422.97;;;6.33;52.58
44697;BME280;57264;47.480;19.354;2023-03-14T00:17:45;98414.97;;;6.41;52.04
44697;BME280;57264;47.480;19.354;2023-03-14T00:20:11;98413.34;;;6.40;51.94
44697;BME280;57264;47.480;19.354;2023-03-14T00:22:40;98414.56;;;6.38;52.49
44697;BME280;57264;47.480;19.354;2023-03-14T00:25:07;98417.75;;;6.40;52.46
44697;BME280;57264;47.480;19.354;2023-03-14T00:27:33;98405.34;;;6.42;52.13
44697;BME280;57264;47.480;19.354;2023-03-14T00:29:59;98403.31;;;6.44;52.51
44697;BME280;57264;47.480;19.354;2023-03-14T00:32:24;98404.13;;;6.38;52.12
44697;BME280;57264;47.480;19.354;2023-03-14T00:34:50;98392.69;;;6.39;52.43
44697;BME280;57264;47.480;19.354;2023-03-14T00:37:16;98391.50;;;6.48;52.35
44697;BME280;57264;47.480;19.354;2023-03-14T00:39:41;98385.06;;;6.50;51.51
44697;BME280;57264;47.480;19.354;2023-03-14T00:42:07;98375.25;;;6.46;52.05
44697;BME280;57264;47.480;19.354;2023-03-14T00:44:33;98383.47;;;6.43;52.11
44697;BME280;57264;47.480;19.354;2023-03-14T00:46:58;98386.09;;;6.49;51.84
44697;BME280;57264;47.480;19.354;2023-03-14T00:49:24;98368.84;;;6.48;52.13
44697;BME280;57264;47.480;19.354;2023-03-14T00:51:49;98372.03;;;6.44;52.59
44697;BME280;57264;47.480;19.354;2023-03-14T00:54:17;98371.03;;;6.45;52.23
44697;BME280;57264;47.480;19.354;2023-03-14T00:56:42;98357.22;;;6.38;51.73
44697;BME280;57264;47.480;19.354;2023-03-14T00:59:08;98357.19;;;6.44;52.57
44697;BME280;57264;47.480;19.354;2023-03-14T01:04:39;98354.41;;;6.33;52.56
44697;BME280;57264;47.480;19.354;2023-03-14T01:07:05;98349.59;;;6.30;52.71
44697;BME280;57264;47.480;19.354;2023-03-14T01:09:30;98347.16;;;6.35;53.20
44697;BME280;57264;47.480;19.354;2023-03-14T01:11:56;98349.59;;;6.30;52.70
44697;BME280;57264;47.480;19.354;2023-03-14T01:14:21;98343.34;;;6.31;52.44
44697;BME280;57264;47.480;19.354;2023-03-14T01:16:46;98341.56;;;6.25;52.88
44697;BME280;57264;47.480;19.354;2023-03-14T01:19:12;98340.56;;;6.26;53.42
44697;BME280;57264;47.480;19.354;2023-03-14T01:21:38;98330.91;;;6.26;52.93
44697;BME280;57264;47.480;19.354;2023-03-14T01:24:05;98329.94;;;6.21;53.04
44697;BME280;57264;47.480;19.354;2023-03-14T01:26:33;98325.50;;;6.15;54.20
44697;BME280;57264;47.480;19.354;2023-03-14T01:28:59;98316.06;;;6.07;53.52
44697;BME280;57264;47.480;19.354;2023-03-14T01:31:26;98306.47;;;6.01;54.47
44697;BME280;57264;47.480;19.354;2023-03-14T01:33:52;98305.66;;;6.00;53.82
44697;BME280;57264;47.480;19.354;2023-03-14T01:36:18;98310.84;;;5.94;54.63
44697;BME280;57264;47.480;19.354;2023-03-14T01:38:43;98294.97;;;5.82;54.66
44697;BME280;57264;47.480;19.354;2023-03-14T01:41:14;98294.97;;;5.82;54.91
44697;BME280;57264;47.480;19.354;2023-03-14T01:43:40;98287.56;;;5.79;55.14
44697;BME280;57264;47.480;19.354;2023-03-14T01:48:36;98286.97;;;5.84;55.47
44697;BME280;57264;47.480;19.354;2023-03-14T01:51:03;98285.56;;;5.81;55.48
44697;BME280;57264;47.480;19.354;2023-03-14T01:53:30;98280.16;;;5.76;55.50
44697;BME280;57264;47.480;19.354;2023-03-14T01:55:57;98274.72;;;5.71;55.88
44697;BME280;57264;47.480;19.354;2023-03-14T01:58:24;98261.72;;;5.71;56.60
44697;BME280;57264;47.480;19.354;2023-03-14T02:00:53;98267.53;;;5.80;55.54
44697;BME280;57264;47.480;19.354;2023-03-14T02:03:20;98259.53;;;5.81;55.72
44697;BME280;57264;47.480;19.354;2023-03-14T02:05:49;98257.53;;;5.83;56.28
44697;BME280;57264;47.480;19.354;2023-03-14T02:08:18;98255.09;;;5.75;56.32
44697;BME280;57264;47.480;19.354;2023-03-14T02:10:47;98251.50;;;5.76;55.72
44697;BME280;57264;47.480;19.354;2023-03-14T02:13:15;98251.50;;;5.76;56.78
44697;BME280;57264;47.480;19.354;2023-03-14T02:15:41;98252.09;;;5.65;56.72
44697;BME280;57264;47.480;19.354;2023-03-14T02:18:07;98242.69;;;5.64;56.83
44697;BME280;57264;47.480;19.354;2023-03-14T02:23:29;98234.66;;;5.59;56.71
44697;BME280;57264;47.480;19.354;2023-03-14T02:26:02;98228.47;;;5.53;56.70
44697;BME280;57264;47.480;19.354;2023-03-14T02:28:29;98216.03;;;5.49;57.43
44697;BME280;57264;47.480;19.354;2023-03-14T02:30:55;98216.44;;;5.52;57.25
44697;BME280;57264;47.480;19.354;2023-03-14T02:33:21;98219.03;;;5.52;57.37
44697;BME280;57264;47.480;19.354;2023-03-14T02:38:55;98212.81;;;5.47;57.42
44697;BME280;57264;47.480;19.354;2023-03-14T02:41:12;98205.22;;;5.45;58.01
44697;BME280;57264;47.480;19.354;2023-03-14T02:43:37;98201.81;;;5.45;57.92
44697;BME280;57264;47.480;19.354;2023-03-14T02:46:05;98194.81;;;5.45;57.69
44697;BME280;57264;47.480;19.354;2023-03-14T02:51:02;98190.00;;;5.62;57.41
44697;BME280;57264;47.480;19.354;2023-03-14T02:53:31;98181.41;;;5.61;57.22
44697;BME280;57264;47.480;19.354;2023-03-14T02:55:57;98174.19;;;5.57;57.79
44697;BME280;57264;47.480;19.354;2023-03-14T02:58:22;98175.59;;;5.59;57.12
44697;BME280;57264;47.480;19.354;2023-03-14T03:00:48;98174.78;;;5.59;57.06
44697;BME280;57264;47.480;19.354;2023-03-14T03:03:14;98182.81;;;5.57;57.71
44697;BME280;57264;47.480;19.354;2023-03-14T03:05:40;98170.97;;;5.55;57.74
44697;BME280;57264;47.480;19.354;2023-03-14T03:08:05;98165.97;;;5.47;57.69
44697;BME280;57264;47.480;19.354;2023-03-14T03:10:32;98163.34;;;5.47;57.52
44697;BME280;57264;47.480;19.354;2023-03-14T03:12:57;98160.53;;;5.42;57.86
44697;BME280;57264;47.480;19.354;2023-03-14T03:15:23;98161.16;;;5.44;57.86
44697;BME280;57264;47.480;19.354;2023-03-14T03:17:49;98161.94;;;5.38;57.84
44697;BME280;57264;47.480;19.354;2023-03-14T03:20:15;98162.34;;;5.35;58.25
44697;BME280;57264;47.480;19.354;2023-03-14T03:22:40;98150.16;;;5.29;58.03
44697;BME280;57264;47.480;19.354;2023-03-14T03:25:07;98151.53;;;5.31;58.79
44697;BME280;57264;47.480;19.354;2023-03-14T03:27:35;98148.94;;;5.38;58.48
44697;BME280;57264;47.480;19.354;2023-03-14T03:30:03;98143.94;;;5.43;58.24
44697;BME280;57264;47.480;19.354;2023-03-14T03:32:29;98150.16;;;5.55;58.30
44697;BME280;57264;47.480;19.354;2023-03-14T03:34:55;98142.53;;;5.66;57.26
44697;BME280;57264;47.480;19.354;2023-03-14T03:37:20;98148.16;;;5.63;57.46
44697;BME280;57264;47.480;19.354;2023-03-14T03:39:46;98143.16;;;5.69;56.90
44697;BME280;57264;47.480;19.354;2023-03-14T03:42:12;98131.72;;;5.76;57.71
44697;BME280;57264;47.480;19.354;2023-03-14T03:44:37;98137.53;;;5.85;56.46
44697;BME280;57264;47.480;19.354;2023-03-14T03:47:03;98134.75;;;5.93;57.15
44697;BME280;57264;47.480;19.354;2023-03-14T03:49:32;98144.16;;;6.00;56.08
44697;BME280;57264;47.480;19.354;2023-03-14T03:51:58;98146.16;;;5.98;56.61
44697;BME280;57264;47.480;19.354;2023-03-14T03:54:24;98137.31;;;6.06;56.30
44697;BME280;57264;47.480;19.354;2023-03-14T03:56:50;98125.31;;;6.05;55.86
44697;BME280;57264;47.480;19.354;2023-03-14T03:59:16;98125.13;;;6.00;55.88
44697;BME280;57264;47.480;19.354;2023-03-14T04:01:42;98130.72;;;5.90;56.09
44697;BME280;57264;47.480;19.354;2023-03-14T04:04:07;98125.94;;;5.87;55.82
44697;BME280;57264;47.480;19.354;2023-03-14T04:06:33;98129.16;;;5.89;56.23
44697;BME280;57264;47.480;19.354;2023-03-14T04:08:59;98131.53;;;5.84;56.05
44697;BME280;57264;47.480;19.354;2023-03-14T04:11:24;98124.53;;;5.85;56.47
44697;BME280;57264;47.480;19.354;2023-03-14T04:13:50;98126.31;;;5.84;56.01
44697;BME280;57264;47.480;19.354;2023-03-14T04:16:21;98115.28;;;5.82;56.41
44697;BME280;57264;47.480;19.354;2023-03-14T04:18:47;98112.31;;;5.72;56.36
44697;BME280;57264;47.480;19.354;2023-03-14T04:21:13;98115.91;;;5.71;55.97
44697;BME280;57264;47.480;19.354;2023-03-14T04:23:38;98114.72;;;5.67;56.86
44697;BME280;57264;47.480;19.354;2023-03-14T04:26:04;98111.53;;;5.65;56.63
44697;BME280;57264;47.480;19.354;2023-03-14T04:28:30;98123.50;;;5.66;56.77
44697;BME280;57264;47.480;19.354;2023-03-14T04:30:55;98127.94;;;5.59;56.84
44697;BME280;57264;47.480;19.354;2023-03-14T04:33:21;98129.75;;;5.52;57.15
44697;BME280;57264;47.480;19.354;2023-03-14T04:35:47;98126.16;;;5.53;56.58
44697;BME280;57264;47.480;19.354;2023-03-14T04:38:13;98122.13;;;5.57;56.76
44697;BME280;57264;47.480;19.354;2023-03-14T04:40:42;98122.72;;;5.59;56.96
44697;BME280;57264;47.480;19.354;2023-03-14T04:43:08;98115.13;;;5.57;56.62
44697;BME280;57264;47.480;19.354;2023-03-14T04:45:35;98115.31;;;5.56;56.91
44697;BME280;57264;47.480;19.354;2023-03-14T04:48:01;98106.31;;;5.52;56.74
44697;BME280;57264;47.480;19.354;2023-03-14T04:50:26;98104.72;;;5.44;57.44
44697;BME280;57264;47.480;19.354;2023-03-14T04:52:52;98097.09;;;5.56;57.14
44697;BME280;57264;47.480;19.354;2023-03-14T04:55:17;98107.50;;;5.69;56.32
44697;BME280;57264;47.480;19.354;2023-03-14T04:57:43;98110.91;;;5.76;56.17
44697;BME280;57264;47.480;19.354;2023-03-14T05:00:09;98116.31;;;5.81;56.54
44697;BME280;57264;47.480;19.354;2023-03-14T05:02:35;98111.28;;;5.80;56.10
44697;BME280;57264;47.480;19.354;2023-03-14T05:05:00;98107.88;;;5.79;55.88
44697;BME280;57264;47.480;19.354;2023-03-14T05:07:26;98108.31;;;5.76;56.02
44697;BME280;57264;47.480;19.354;2023-03-14T05:09:51;98106.50;;;5.77;55.94
44697;BME280;57264;47.480;19.354;2023-03-14T05:12:19;98101.28;;;5.77;56.03
44697;BME280;57264;47.480;19.354;2023-03-14T05:14:45;98090.66;;;5.78;56.25
44697;BME280;57264;47.480;19.354;2023-03-14T05:17:11;98092.06;;;5.74;56.50
44697;BME280;57264;47.480;19.354;2023-03-14T05:19:40;98101.47;;;5.75;56.61
44697;BME280;57264;47.480;19.354;2023-03-14T05:22:05;98098.69;;;5.77;56.47
44697;BME280;57264;47.480;19.354;2023-03-14T05:24:31;98083.88;;;5.77;56.39
44697;BME280;57264;47.480;19.354;2023-03-14T05:26:57;98097.47;;;5.79;56.75
44697;BME280;57264;47.480;19.354;2023-03-14T05:29:22;98096.06;;;5.83;55.87
44697;BME280;57264;47.480;19.354;2023-03-14T05:31:48;98105.09;;;5.87;55.83
44697;BME280;57264;47.480;19.354;2023-03-14T05:34:13;98100.69;;;5.88;55.88
44697;BME280;57264;47.480;19.354;2023-03-14T05:36:39;98100.09;;;5.92;55.60
44697;BME280;57264;47.480;19.354;2023-03-14T05:39:04;98097.06;;;6.02;55.81
44697;BME280;57264;47.480;19.354;2023-03-14T05:41:30;98082.00;;;6.10;54.70
44697;BME280;57264;47.480;19.354;2023-03-14T05:43:55;98082.19;;;6.16;54.58
44697;BME280;57264;47.480;19.354;2023-03-14T05:46:21;98084.56;;;6.24;54.79
44697;BME280;57264;47.480;19.354;2023-03-14T05:48:47;98078.13;;;6.33;54.78
44697;BME280;57264;47.480;19.354;2023-03-14T05:51:12;98086.72;;;6.40;54.61
44697;BME280;57264;47.480;19.354;2023-03-14T05:53:38;98087.47;;;6.53;53.61
44697;BME280;57264;47.480;19.354;2023-03-14T05:56:03;98089.59;;;6.70;53.49
44697;BME280;57264;47.480;19.354;2023-03-14T05:58:29;98077.06;;;6.85;52.98
44697;BME280;57264;47.480;19.354;2023-03-14T06:00:55;98079.22;;;6.94;53.08
44697;BME280;57264;47.480;19.354;2023-03-14T06:03:20;98089.31;;;7.16;51.83
44697;BME280;57264;47.480;19.354;2023-03-14T06:05:46;98079.72;;;7.34;51.91
44697;BME280;57264;47.480;19.354;2023-03-14T06:08:11;98085.56;;;7.61;51.17
44697;BME280;57264;47.480;19.354;2023-03-14T06:10:37;98089.66;;;7.93;50.25
44697;BME280;57264;47.480;19.354;2023-03-14T06:13:03;98089.66;;;8.12;50.22
44697;BME280;57264;47.480;19.354;2023-03-14T06:15:29;98086.41;;;8.53;49.67
44697;BME280;57264;47.480;19.354;2023-03-14T06:17:55;98083.81;;;8.82;48.48
44697;BME280;57264;47.480;19.354;2023-03-14T06:20:21;98083.78;;;9.12;47.90
44697;BME280;57264;47.480;19.354;2023-03-14T06:22:47;98073.59;;;9.34;46.75
44697;BME280;57264;47.480;19.354;2023-03-14T06:25:12;98076.13;;;9.75;46.09
44697;BME280;57264;47.480;19.354;2023-03-14T06:27:38;98069.59;;;10.01;45.13
44697;BME280;57264;47.480;19.354;2023-03-14T06:30:04;98069.38;;;10.03;45.51
44697;BME280;57264;47.480;19.354;2023-03-14T06:32:30;98071.06;;;10.32;44.72
44697;BME280;57264;47.480;19.354;2023-03-14T06:34:56;98059.34;;;10.51;43.53
44697;BME280;57264;47.480;19.354;2023-03-14T06:37:22;98070.97;;;10.67;43.25
44697;BME280;57264;47.480;19.354;2023-03-14T06:39:48;98073.16;;;10.87;42.75
44697;BME280;57264;47.480;19.354;2023-03-14T06:42:13;98077.78;;;10.96;42.68
44697;BME280;57264;47.480;19.354;2023-03-14T06:44:39;98079.16;;;10.99;43.23
44697;BME280;57264;47.480;19.354;2023-03-14T06:47:04;98080.34;;;10.91;43.42
44697;BME280;57264;47.480;19.354;2023-03-14T06:49:30;98076.22;;;11.12;42.59
44697;BME280;57264;47.480;19.354;2023-03-14T06:51:55;98078.88;;;11.45;41.58
44697;BME280;57264;47.480;19.354;2023-03-14T06:54:21;98077.75;;;11.41;41.70
44697;BME280;57264;47.480;19.354;2023-03-14T06:56:47;98070.19;;;11.61;41.53
44697;BME280;57264;47.480;19.354;2023-03-14T06:59:12;98076.16;;;11.40;42.68
44697;BME280;57264;47.480;19.354;2023-03-14T07:01:38;98077.34;;;11.16;41.77
44697;BME280;57264;47.480;19.354;2023-03-14T07:04:04;98075.59;;;11.21;42.59
44697;BME280;57264;47.480;19.354;2023-03-14T07:06:29;98075.16;;;10.96;43.42
44697;BME280;57264;47.480;19.354;2023-03-14T07:08:55;98070.44;;;10.82;43.00
44697;BME280;57264;47.480;19.354;2023-03-14T07:11:21;98068.84;;;10.80;43.17
44697;BME280;57264;47.480;19.354;2023-03-14T07:13:47;98074.19;;;10.86;43.15
44697;BME280;57264;47.480;19.354;2023-03-14T07:16:12;98066.47;;;10.96;43.03
44697;BME280;57264;47.480;19.354;2023-03-14T07:18:38;98057.28;;;11.10;42.95
44697;BME280;57264;47.480;19.354;2023-03-14T07:21:07;98054.69;;;11.26;42.85
44697;BME280;57264;47.480;19.354;2023-03-14T07:23:34;98057.69;;;11.18;43.39
44697;BME280;57264;47.480;19.354;2023-03-14T07:26:03;98057.94;;;11.50;42.48
44697;BME280;57264;47.480;19.354;2023-03-14T07:28:31;98052.81;;;11.77;42.41
44697;BME280;57264;47.480;19.354;2023-03-14T07:31:00;98043.28;;;12.09;41.94
44697;BME280;57264;47.480;19.354;2023-03-14T07:33:25;98045.59;;;12.49;41.77
44697;BME280;57264;47.480;19.354;2023-03-14T07:35:51;98055.88;;;12.51;41.48
44697;BME280;57264;47.480;19.354;2023-03-14T07:38:17;98042.63;;;12.68;40.85
44697;BME280;57264;47.480;19.354;2023-03-14T07:40:42;98043.69;;;12.66;40.63
44697;BME280;57264;47.480;19.354;2023-03-14T07:43:08;98044.72;;;12.92;41.24
44697;BME280;57264;47.480;19.354;2023-03-14T07:45:34;98041.63;;;13.27;41.15
44697;BME280;57264;47.480;19.354;2023-03-14T07:47:59;98037.47;;;13.36;40.19
44697;BME280;57264;47.480;19.354;2023-03-14T07:50:27;98031.91;;;13.33;40.74
44697;BME280;57264;47.480;19.354;2023-03-14T07:52:56;98027.09;;;13.62;39.18
44697;BME280;57264;47.480;19.354;2023-03-14T07:55:21;98027.78;;;13.89;39.16
44697;BME280;57264;47.480;19.354;2023-03-14T07:57:47;98032.44;;;14.19;39.77
44697;BME280;57264;47.480;19.354;2023-03-14T08:00:13;98034.31;;;14.23;38.67
44697;BME280;57264;47.480;19.354;2023-03-14T08:02:40;98033.75;;;14.21;39.20
44697;BME280;57264;47.480;19.354;2023-03-14T08:05:06;98026.94;;;14.30;38.49
44697;BME280;57264;47.480;19.354;2023-03-14T08:07:32;98022.00;;;14.44;39.16
44697;BME280;57264;47.480;19.354;2023-03-14T08:09:57;98017.03;;;14.63;38.83
44697;BME280;57264;47.480;19.354;2023-03-14T08:12:23;98012.81;;;14.82;38.67
44697;BME280;57264;47.480;19.354;2023-03-14T08:14:48;98008.09;;;15.09;37.87
44697;BME280;57264;47.480;19.354;2023-03-14T08:17:14;98010.72;;;15.34;37.77
44697;BME280;57264;47.480;19.354;2023-03-14T08:19:41;97993.81;;;15.56;36.53
44697;BME280;57264;47.480;19.354;2023-03-14T08:22:06;97982.16;;;15.72;36.51
44697;BME280;57264;47.480;19.354;2023-03-14T08:24:32;97985.72;;;16.01;36.06
44697;BME280;57264;47.480;19.354;2023-03-14T08:26:58;97984.97;;;15.90;36.12
44697;BME280;57264;47.480;19.354;2023-03-14T08:29:23;97981.53;;;15.95;35.41
44697;BME280;57264;47.480;19.354;2023-03-14T08:31:49;97973.59;;;15.90;35.54
44697;BME280;57264;47.480;19.354;2023-03-14T08:34:15;97975.16;;;16.01;35.12
44697;BME280;57264;47.480;19.354;2023-03-14T08:36:41;97971.91;;;16.19;35.74
44697;BME280;57264;47.480;19.354;2023-03-14T08:39:06;97990.41;;;16.24;35.35
44697;BME280;57264;47.480;19.354;2023-03-14T08:41:33;97989.06;;;16.27;35.22
44697;BME280;57264;47.480;19.354;2023-03-14T08:43:58;97989.09;;;16.22;34.92
44697;BME280;57264;47.480;19.354;2023-03-14T08:46:24;97998.38;;;16.19;35.17
44697;BME280;57264;47.480;19.354;2023-03-14T08:48:49;97991.41;;;16.33;35.61
44697;BME280;57264;47.480;19.354;2023-03-14T08:51:15;97994.63;;;16.30;35.83
44697;BME280;57264;47.480;19.354;2023-03-14T08:53:41;97994.31;;;16.37;34.91
44697;BME280;57264;47.480;19.354;2023-03-14T08:56:07;97987.94;;;16.38;34.63
44697;BME280;57264;47.480;19.354;2023-03-14T08:58:35;97985.03;;;16.39;35.44
44697;BME280;57264;47.480;19.354;2023-03-14T09:01:02;97984.03;;;16.30;35.34
44697;BME280;57264;47.480;19.354;2023-03-14T09:03:28;97971.34;;;16.27;35.88
44697;BME280;57264;47.480;19.354;2023-03-14T09:05:54;97968.97;;;16.21;35.35
44697;BME280;57264;47.480;19.354;2023-03-14T09:08:19;97960.03;;;16.12;35.86
44697;BME280;57264;47.480;19.354;2023-03-14T09:10:45;97959.31;;;15.86;36.18
44697;BME280;57264;47.480;19.354;2023-03-14T09:13:10;97946.00;;;16.06;37.37
44697;BME280;57264;47.480;19.354;2023-03-14T09:15:36;97942.34;;;15.97;36.10
44697;BME280;57264;47.480;19.354;2023-03-14T09:18:01;97947.63;;;15.97;37.06
44697;BME280;57264;47.480;19.354;2023-03-14T09:20:27;97962.75;;;15.91;36.86
44697;BME280;57264;47.480;19.354;2023-03-14T09:22:53;97943.44;;;15.91;36.46
44697;BME280;57264;47.480;19.354;2023-03-14T09:25:18;97948.72;;;15.91;36.83
44697;BME280;57264;47.480;19.354;2023-03-14T09:27:44;97940.28;;;15.84;36.61
44697;BME280;57264;47.480;19.354;2023-03-14T09:30:10;97934.47;;;15.77;36.67
44697;BME280;57264;47.480;19.354;2023-03-14T09:32:38;97939.25;;;15.80;37.12
44697;BME280;57264;47.480;19.354;2023-03-14T09:35:04;97931.31;;;15.80;36.68
44697;BME280;57264;47.480;19.354;2023-03-14T09:37:30;97923.31;;;15.95;37.19
44697;BME280;57264;47.480;19.354;2023-03-14T09:39:55;97925.38;;;16.08;37.30
44697;BME280;57264;47.480;19.354;2023-03-14T09:42:26;97927.38;;;16.26;37.51
44697;BME280;57264;47.480;19.354;2023-03-14T09:45:09;97923.94;;;16.21;37.45
44697;BME280;57264;47.480;19.354;2023-03-14T09:47:36;97922.94;;;16.17;37.30
44697;BME280;57264;47.480;19.354;2023-03-14T09:50:01;97915.25;;;16.20;37.18
44697;BME280;57264;47.480;19.354;2023-03-14T09:52:31;97927.06;;;16.33;36.79
44697;BME280;57264;47.480;19.354;2023-03-14T09:55:01;97913.53;;;16.39;37.81
44697;BME280;57264;47.480;19.354;2023-03-14T09:57:27;97910.56;;;16.46;36.56
44697;BME280;57264;47.480;19.354;2023-03-14T09:59:57;97902.13;;;16.44;36.48
44697;BME280;57264;47.480;19.354;2023-03-14T10:02:35;97900.19;;;16.60;36.12
44697;BME280;57264;47.480;19.354;2023-03-14T10:05:01;97901.31;;;16.82;37.33
44697;BME280;57264;47.480;19.354;2023-03-14T10:07:31;97893.56;;;16.91;36.29
44697;BME280;57264;47.480;19.354;2023-03-14T10:09:58;97885.81;;;17.00;36.21
44697;BME280;57264;47.480;19.354;2023-03-14T10:12:32;97884.13;;;17.09;35.67
44697;BME280;57264;47.480;19.354;2023-03-14T10:15:03;97865.28;;;17.34;35.54
44697;BME280;57264;47.480;19.354;2023-03-14T10:17:29;97873.63;;;17.46;35.78
44697;BME280;57264;47.480;19.354;2023-03-14T10:19:58;97881.91;;;17.45;35.86
44697;BME280;57264;47.480;19.354;2023-03-14T10:22:30;97863.47;;;17.53;35.48
44697;BME280;57264;47.480;19.354;2023-03-14T10:25:00;97861.75;;;17.44;35.80
44697;BME280;57264;47.480;19.354;2023-03-14T10:27:29;97860.53;;;17.55;35.72
44697;BME280;57264;47.480;19.354;2023-03-14T10:29:58;97852.56;;;17.60;35.36
44697;BME280;57264;47.480;19.354;2023-03-14T10:32:34;97859.53;;;17.74;35.11
44697;BME280;57264;47.480;19.354;2023-03-14T10:35:21;97853.16;;;17.75;35.47
44697;BME280;57264;47.480;19.354;2023-03-14T10:37:59;97843.97;;;17.68;35.87
44697;BME280;57264;47.480;19.354;2023-03-14T10:40:47;97847.09;;;17.70;35.09
44697;BME280;57264;47.480;19.354;2023-03-14T10:43:19;97838.88;;;17.90;35.56
44697;BME280;57264;47.480;19.354;2023-03-14T10:45:57;97834.88;;;18.11;35.27
44697;BME280;57264;47.480;19.354;2023-03-14T10:53:23;97835.38;;;18.46;34.98
44697;BME280;57264;47.480;19.354;2023-03-14T10:55:50;97825.63;;;18.60;34.84
44697;BME280;57264;47.480;19.354;2023-03-14T10:58:25;97818.25;;;18.57;33.89
44697;BME280;57264;47.480;19.354;2023-03-14T11:01:02;97810.06;;;18.35;33.95
44697;BME280;57264;47.480;19.354;2023-03-14T11:03:35;97802.81;;;18.21;35.03
44697;BME280;57264;47.480;19.354;2023-03-14T11:06:09;97806.47;;;18.25;34.93
44697;BME280;57264;47.480;19.354;2023-03-14T11:08:47;97801.56;;;18.00;34.78
44697;BME280;57264;47.480;19.354;2023-03-14T11:11:19;97791.25;;;17.99;35.14
44697;BME280;57264;47.480;19.354;2023-03-14T11:25:43;97761.91;;;18.41;36.18
44697;BME280;57264;47.480;19.354;2023-03-14T11:30:55;97740.00;;;18.63;35.63
44697;BME280;57264;47.480;19.354;2023-03-14T11:33:28;97739.91;;;18.68;36.06
44697;BME280;57264;47.480;19.354;2023-03-14T11:36:12;97740.13;;;18.72;35.64
44697;BME280;57264;47.480;19.354;2023-03-14T11:41:16;97741.06;;;18.62;35.66
44697;BME280;57264;47.480;19.354;2023-03-14T11:43:47;97731.47;;;18.47;35.55
44697;BME280;57264;47.480;19.354;2023-03-14T11:46:17;97733.22;;;18.57;35.70
44697;BME280;57264;47.480;19.354;2023-03-14T11:49:45;97723.88;;;18.73;35.43
44697;BME280;57264;47.480;19.354;2023-03-14T11:51:56;97720.81;;;18.80;35.19
44697;BME280;57264;47.480;19.354;2023-03-14T11:54:50;97707.03;;;18.91;35.59
44697;BME280;57264;47.480;19.354;2023-03-14T11:57:19;97699.59;;;19.29;34.35
44697;BME280;57264;47.480;19.354;2023-03-14T12:03:45;97713.19;;;19.41;33.00
44697;BME280;57264;47.480;19.354;2023-03-14T12:06:00;97701.63;;;19.59;31.86
44697;BME280;57264;47.480;19.354;2023-03-14T12:08:52;97710.09;;;19.61;32.87
44697;BME280;57264;47.480;19.354;2023-03-14T12:13:50;97680.16;;;19.42;32.01
44697;BME280;57264;47.480;19.354;2023-03-14T12:18:49;97686.75;;;19.09;33.20
44697;BME280;57264;47.480;19.354;2023-03-14T12:21:15;97682.34;;;19.27;33.28
44697;BME280;57264;47.480;19.354;2023-03-14T12:23:44;97661.84;;;19.41;32.90
44697;BME280;57264;47.480;19.354;2023-03-14T12:26:26;97666.53;;;19.22;32.48
44697;BME280;57264;47.480;19.354;2023-03-14T12:31:46;97668.78;;;19.14;32.41
44697;BME280;57264;47.480;19.354;2023-03-14T12:39:22;97665.03;;;19.29;31.88
44697;BME280;57264;47.480;19.354;2023-03-14T12:42:14;97651.72;;;19.29;31.61
44697;BME280;57264;47.480;19.354;2023-03-14T12:44:50;97656.09;;;19.11;30.96
44697;BME280;57264;47.480;19.354;2023-03-14T12:49:46;97649.25;;;19.33;33.49
44697;BME280;57264;47.480;19.354;2023-03-14T12:52:19;97647.66;;;19.32;31.77
44697;BME280;57264;47.480;19.354;2023-03-14T12:55:01;97638.22;;;19.26;32.38
44697;BME280;57264;47.480;19.354;2023-03-14T12:59:59;97639.47;;;18.92;32.05
44697;BME280;57264;47.480;19.354;2023-03-14T13:02:37;97626.72;;;19.16;32.34
44697;BME280;57264;47.480;19.354;2023-03-14T13:05:16;97628.94;;;19.01;32.38
44697;BME280;57264;47.480;19.354;2023-03-14T13:13:14;97613.28;;;18.86;32.15
44697;BME280;57264;47.480;19.354;2023-03-14T13:15:41;97614.94;;;18.95;32.83
44697;BME280;57264;47.480;19.354;2023-03-14T13:23:37;97605.81;;;18.74;32.28
44697;BME280;57264;47.480;19.354;2023-03-14T13:26:09;97610.56;;;18.77;32.88
44697;BME280;57264;47.480;19.354;2023-03-14T13:28:36;97608.66;;;18.78;32.73
44697;BME280;57264;47.480;19.354;2023-03-14T13:31:03;97606.41;;;18.85;33.21
44697;BME280;57264;47.480;19.354;2023-03-14T13:33:30;97608.38;;;18.79;33.22
44697;BME280;57264;47.480;19.354;2023-03-14T13:35:57;97606.78;;;18.51;33.46
44697;BME280;57264;47.480;19.354;2023-03-14T13:38:28;97613.19;;;18.36;33.96
44697;BME280;57264;47.480;19.354;2023-03-14T13:40:55;97613.97;;;18.09;34.09
44697;BME280;57264;47.480;19.354;2023-03-14T13:43:31;97620.72;;;17.88;34.88
44697;BME280;57264;47.480;19.354;2023-03-14T13:46:16;97619.59;;;17.75;35.83
44697;BME280;57264;47.480;19.354;2023-03-14T13:48:48;97618.63;;;17.53;35.16
44697;BME280;57264;47.480;19.354;2023-03-14T13:51:16;97627.03;;;17.41;35.47
44697;BME280;57264;47.480;19.354;2023-03-14T13:53:52;97621.66;;;17.27;36.13
44697;BME280;57264;47.480;19.354;2023-03-14T13:56:20;97622.78;;;17.21;37.01
44697;BME280;57264;47.480;19.354;2023-03-14T13:58:46;97617.22;;;17.04;37.36
44697;BME280;57264;47.480;19.354;2023-03-14T14:03:39;97613.34;;;16.97;37.26
44697;BME280;57264;47.480;19.354;2023-03-14T14:06:10;97609.69;;;16.93;37.16
44697;BME280;57264;47.480;19.354;2023-03-14T14:08:42;97611.53;;;16.92;38.36